Terminal Aerodrome Forecast
Issued by NWS

Home | Current Version | Previous Version | Text Only | Print | Product List | Glossary On
Versions: 1 2 3 4 5 6 7 8 9 10 11 12 13 14 15 16 17
000
FTAK31 PAJN 282323
TAFAGY
TAF
PAGY 282323Z 2900/2924 04014KT P6SM VCSH OVC060
     FM290100 03009KT P6SM -SHRA OVC050
     FM290500 03003KT P6SM -SHRA OVC060
     FM291000 03004KT P6SM VCSH OVC060
     FM291900 04005KT P6SM -SHRA OVC060
      AMD LTD TO CLD VIS AND WIND=

USA.gov is the U.S. government's official web portal to all federal, state and local government web resources and services.